createdAt,value
2019-01-30T00:04:22.431Z,80.72
2019-01-30T00:09:25.142Z,80.78
2019-01-30T00:14:47.318Z,80.88
2019-01-30T00:19:49.997Z,80.81
2019-01-30T00:25:12.404Z,80.79
2019-01-30T00:30:15.749Z,80.86
2019-01-30T00:35:37.924Z,80.89
2019-01-30T00:41:00.108Z,80.82
2019-01-30T00:46:02.992Z,80.96
2019-01-30T00:51:25.163Z,81.01
2019-01-30T00:56:27.835Z,80.65
2019-01-30T01:01:30.530Z,81.46
2019-01-30T01:06:33.230Z,81.26
2019-01-30T01:11:39.713Z,81.03
2019-01-30T01:22:18.364Z,80.88
2019-01-30T01:27:40.701Z,81.06
2019-01-30T01:32:43.366Z,81.36
2019-01-30T01:38:05.630Z,80.96
2019-01-30T01:43:27.860Z,80.51
2019-01-30T01:48:50.038Z,80.21
2019-01-30T01:53:52.726Z,80.36
2019-01-30T01:58:55.403Z,80.53
2019-01-30T02:03:58.078Z,80.47
2019-01-30T02:09:20.287Z,80.92
2019-01-30T02:14:23.031Z,80.69
2019-01-30T02:19:25.731Z,80.57
2019-01-30T02:24:47.912Z,81.27
2019-01-30T02:30:13.476Z,81.11
2019-01-30T02:35:35.648Z,81.62
2019-01-30T02:40:38.335Z,81.16
2019-01-30T02:45:41.001Z,81.15
2019-01-30T02:51:03.309Z,81.61
2019-01-30T02:56:05.979Z,81.01
2019-01-30T03:01:28.165Z,81.29
2019-01-30T03:06:50.352Z,81.21
2019-01-30T03:12:05.853Z,80.92
2019-01-30T03:17:08.510Z,81.02
2019-01-30T03:22:37.704Z,80.59
2019-01-30T03:27:40.423Z,80.11
2019-01-30T03:33:02.622Z,79.88
2019-01-30T03:38:05.317Z,79.93
2019-01-30T03:43:27.516Z,79.66
2019-01-30T03:48:30.268Z,79.46
2019-01-30T03:53:32.952Z,79.28
2019-01-30T03:58:35.668Z,78.90
2019-01-30T04:03:38.362Z,79.26
2019-01-30T04:09:00.570Z,79.12
2019-01-30T04:14:03.266Z,78.72
2019-01-30T04:19:05.951Z,78.54
2019-01-30T04:24:28.145Z,78.61
2019-01-30T04:29:50.320Z,78.08
2019-01-30T04:35:12.721Z,77.86
2019-01-30T04:40:34.927Z,76.73
2019-01-30T04:45:57.131Z,76.79
2019-01-30T04:51:19.313Z,76.63
2019-01-30T04:56:41.486Z,76.78
2019-01-30T05:01:49.735Z,76.50
2019-01-30T05:06:48.740Z,76.69
2019-01-30T05:11:51.435Z,76.77
2019-01-30T05:17:13.711Z,76.79
2019-01-30T05:22:16.388Z,76.67
2019-01-30T05:27:38.563Z,76.78
2019-01-30T05:32:41.249Z,76.81
2019-01-30T05:38:03.567Z,76.91
2019-01-30T05:43:25.749Z,77.10
2019-01-30T05:48:28.445Z,76.89
2019-01-30T05:53:50.613Z,76.40
2019-01-30T05:59:12.811Z,75.98
2019-01-30T06:04:35.056Z,75.48
2019-01-30T06:09:37.791Z,76.41
2019-01-30T06:14:59.970Z,76.46
2019-01-30T06:20:23.964Z,76.34
2019-01-30T06:25:46.143Z,76.94
2019-01-30T06:31:08.331Z,77.31
2019-01-30T06:36:32.122Z,77.87
2019-01-30T06:41:54.388Z,77.96
2019-01-30T06:47:16.564Z,77.83
2019-01-30T06:52:19.261Z,77.99
2019-01-30T06:57:21.946Z,77.97
2019-01-30T07:02:44.168Z,77.61
2019-01-30T07:08:06.402Z,77.06
2019-01-30T07:13:09.242Z,77.28
2019-01-30T07:18:31.423Z,77.17
2019-01-30T07:23:53.604Z,76.90
2019-01-30T07:29:15.776Z,77.11
2019-01-30T07:34:38.005Z,77.99
2019-01-30T07:40:00.302Z,77.89
2019-01-30T07:45:45.203Z,78.23
2019-01-30T07:51:07.392Z,78.11
2019-01-30T07:56:29.569Z,78.09
2019-01-30T08:01:51.739Z,78.94
2019-01-30T08:07:13.908Z,78.45
2019-01-30T08:12:29.580Z,77.71
2019-01-30T08:17:51.761Z,78.11
2019-01-30T08:23:13.936Z,78.11
2019-01-30T08:28:36.195Z,77.44
2019-01-30T08:33:58.401Z,77.38
2019-01-30T08:39:20.568Z,77.63
2019-01-30T08:44:46.978Z,76.92
2019-01-30T08:50:07.616Z,76.67
2019-01-30T08:55:29.800Z,76.22
2019-01-30T09:00:51.970Z,75.70
2019-01-30T09:06:14.142Z,75.58
2019-01-30T09:11:29.600Z,75.39
2019-01-30T09:16:51.774Z,74.77
2019-01-30T09:22:13.940Z,74.88
2019-01-30T09:27:36.109Z,74.88
2019-01-30T09:32:58.336Z,74.33
2019-01-30T09:38:20.510Z,73.62
2019-01-30T09:43:42.682Z,73.93
2019-01-30T09:49:04.842Z,73.63
2019-01-30T09:54:07.628Z,74.10
2019-01-30T09:59:29.816Z,73.58
2019-01-30T10:04:32.483Z,72.64
2019-01-30T10:09:37.634Z,72.39
2019-01-30T10:14:59.228Z,72.30
2019-01-30T10:20:22.999Z,71.96
2019-01-30T10:25:45.181Z,71.65
2019-01-30T10:31:07.363Z,70.62
2019-01-30T10:36:10.138Z,69.79
2019-01-30T10:41:12.815Z,69.66
2019-01-30T10:46:34.984Z,69.27
2019-01-30T10:51:57.190Z,67.99
2019-01-30T10:57:19.371Z,67.15
2019-01-30T11:02:41.542Z,67.22
2019-01-30T11:08:04.183Z,67.35
2019-01-30T11:13:19.853Z,67.46
2019-01-30T11:18:42.033Z,67.16
2019-01-30T11:24:04.375Z,67.84
2019-01-30T11:29:26.556Z,68.43
2019-01-30T11:34:48.725Z,68.23
2019-01-30T11:46:02.225Z,68.44
2019-01-30T11:51:04.899Z,68.36
2019-01-30T11:56:07.656Z,67.82
2019-01-30T12:01:30.064Z,67.18
2019-01-30T12:06:52.495Z,66.56
2019-01-30T12:12:08.143Z,66.66
2019-01-30T12:17:30.928Z,66.69
2019-01-30T12:22:53.240Z,66.73
2019-01-30T12:28:15.694Z,66.81
2019-01-30T12:33:38.215Z,66.42
2019-01-30T12:39:00.832Z,67.04
2019-01-30T12:44:23.761Z,67.39
2019-01-30T12:49:46.734Z,67.38
2019-01-30T12:55:09.100Z,67.23
2019-01-30T13:01:13.437Z,66.94
2019-01-30T13:06:35.699Z,66.50
2019-01-30T13:11:50.899Z,66.84
2019-01-30T13:17:13.073Z,67.32
2019-01-30T13:22:35.242Z,67.61
2019-01-30T13:27:57.528Z,68.18
2019-01-30T13:33:19.704Z,68.54
2019-01-30T13:38:41.915Z,70.23
2019-01-30T13:44:25.475Z,71.55
2019-01-30T13:49:47.633Z,72.05
2019-01-30T13:55:10.159Z,72.28
2019-01-30T14:00:33.820Z,73.41
2019-01-30T14:05:56.003Z,74.53
2019-01-30T14:11:11.468Z,75.60
2019-01-30T14:16:33.635Z,76.45
2019-01-30T14:21:55.931Z,76.82
2019-01-30T14:27:18.087Z,77.78
2019-01-30T14:32:40.273Z,78.40
2019-01-30T14:37:43.107Z,78.81
2019-01-30T14:43:05.435Z,78.25
2019-01-30T14:48:27.642Z,78.73
2019-01-30T14:53:49.954Z,78.49
2019-01-30T14:59:12.189Z,78.32
2019-01-30T15:04:34.374Z,79.02
2019-01-30T15:09:50.129Z,79.14
2019-01-30T15:15:31.832Z,78.62
2019-01-30T15:20:35.619Z,78.59
2019-01-30T15:25:57.796Z,78.33
2019-01-30T15:31:19.963Z,77.97
2019-01-30T15:36:42.143Z,77.47
2019-01-30T15:41:44.861Z,76.77
2019-01-30T15:46:47.540Z,77.50
2019-01-30T15:51:50.234Z,77.19
2019-01-30T15:57:12.405Z,76.78
2019-01-30T16:02:34.588Z,76.22
2019-01-30T16:07:56.767Z,76.02
2019-01-30T16:13:12.190Z,75.57
2019-01-30T16:18:34.371Z,74.83
2019-01-30T16:23:37.042Z,74.82
2019-01-30T16:28:39.732Z,74.81
2019-01-30T16:34:01.920Z,74.15
2019-01-30T16:39:24.111Z,73.61
2019-01-30T16:44:46.284Z,73.27
2019-01-30T16:50:10.075Z,73.48
2019-01-30T16:55:32.263Z,73.26
2019-01-30T17:00:54.454Z,72.95
2019-01-30T17:06:16.628Z,72.77
2019-01-30T17:11:31.861Z,72.55
2019-01-30T17:16:54.039Z,72.52
2019-01-30T17:22:16.217Z,72.57
2019-01-30T17:27:38.606Z,72.53
2019-01-30T17:32:41.379Z,72.38
2019-01-30T17:38:03.872Z,72.38
2019-01-30T17:43:26.061Z,72.37
2019-01-30T17:48:48.835Z,72.63
2019-01-30T17:54:13.586Z,72.35
2019-01-30T17:59:35.837Z,72.17
2019-01-30T18:04:59.313Z,72.53
2019-01-30T18:10:17.738Z,72.03
2019-01-30T18:15:39.622Z,71.84
2019-01-30T18:21:01.818Z,72.25
2019-01-30T18:26:24.118Z,71.75
2019-01-30T18:31:26.796Z,71.82
2019-01-30T18:36:49.074Z,72.43
2019-01-30T18:42:11.272Z,72.67
2019-01-30T18:47:33.435Z,73.10
2019-01-30T18:52:48.881Z,72.94
2019-01-30T18:58:11.133Z,72.63
2019-01-30T19:03:33.370Z,72.07
2019-01-30T19:14:41.981Z,71.74
2019-01-30T19:20:06.054Z,71.75
2019-01-30T19:25:28.309Z,71.71
2019-01-30T19:30:50.486Z,71.72
2019-01-30T19:36:12.854Z,71.89
2019-01-30T19:41:36.070Z,71.79
2019-01-30T19:46:58.247Z,71.87
2019-01-30T19:52:00.918Z,72.10
2019-01-30T19:57:23.141Z,72.12
2019-01-30T20:02:25.883Z,72.16
2019-01-30T20:07:49.257Z,72.31
2019-01-30T20:13:05.859Z,72.39
2019-01-30T20:18:28.171Z,72.43
2019-01-30T20:23:31.487Z,72.54
2019-01-30T20:28:53.701Z,72.48
2019-01-30T20:34:15.878Z,72.63
2019-01-30T20:39:38.188Z,72.95
2019-01-30T20:45:00.445Z,73.04
2019-01-30T20:50:24.874Z,73.37
2019-01-30T20:55:47.100Z,73.55
2019-01-30T21:01:09.365Z,73.91
2019-01-30T21:06:31.569Z,74.22
2019-01-30T21:11:46.732Z,74.33
2019-01-30T21:16:49.464Z,74.35
2019-01-30T21:22:11.646Z,74.75
2019-01-30T21:27:33.825Z,75.21
2019-01-30T21:32:55.987Z,75.67
2019-01-30T21:38:18.167Z,76.37
2019-01-30T21:43:40.344Z,76.62
2019-01-30T21:48:43.090Z,77.16
2019-01-30T21:54:05.264Z,77.24
2019-01-30T21:59:27.442Z,76.92
2019-01-30T22:04:30.108Z,77.14
2019-01-30T22:09:32.806Z,76.81
2019-01-30T22:14:54.995Z,76.90
2019-01-30T22:20:19.387Z,76.63
2019-01-30T22:25:41.573Z,76.78
2019-01-30T22:31:03.950Z,76.67
2019-01-30T22:36:06.621Z,76.31
2019-01-30T22:41:28.814Z,76.21
2019-01-30T22:46:50.997Z,75.98
2019-01-30T22:52:13.176Z,75.91
2019-01-30T22:57:15.839Z,75.37
2019-01-30T23:02:39.818Z,75.01
2019-01-30T23:08:22.877Z,74.72
2019-01-30T23:13:48.942Z,74.49
2019-01-30T23:19:50.108Z,74.40
2019-01-30T23:25:51.278Z,74.59
2019-01-30T23:31:37.727Z,74.86
2019-01-30T23:37:25.059Z,75.09
2019-01-30T23:43:26.264Z,75.13
2019-01-30T23:49:27.453Z,75.03
2019-01-30T23:55:28.658Z,74.71
